Terminal Aerodrome Forecast
Issued by NWS Central Illinois

Home | Current Version | Previous Version | Text Only | Print | Product List | Glossary On
Versions: 1 2 3 4 5 6 7 8 9 10 11 12 13 14 15 16 17 18 19 20 21 22
000
FTUS43 KILX 281133
TAFSPI
TAF
KSPI 281133Z 2812/2912 04008KT P6SM SCT005 OVC018
     FM281500 03006KT P6SM OVC025
     FM282000 03007KT P6SM OVC035
     FM290200 05008KT P6SM SCT035
     FM290600 06008KT P6SM OVC006=

USA.gov is the U.S. government's official web portal to all federal, state and local government web resources and services.